Time;durP1;ratioP1;P1;durP2;ratioP2;P2;SDS_P1;SDS_P2;PMS_P1;PMS_P2;Temp;Humidity;BMP_temperature;BMP_pressure;BME280_temperature;BME280_humidity;BME280_pressure;Samples;Min_cycle;Max_cycle;Signal;HPM_P1;HPM_P2
2022/03/14 00:01:06;;;;;;;2.38;0.70;;;26.30;99.90;;;;;;5022537;28;20044;-65
2022/03/14 00:03:41;;;;;;;1.13;0.57;;;26.10;99.90;;;;;;5022712;28;20025;-63
2022/03/14 00:06:11;;;;;;;4.78;0.98;;;25.90;99.90;;;;;;5022888;28;20022;-65
2022/03/14 00:08:41;;;;;;;2.63;0.80;;;25.70;99.90;;;;;;5023946;28;20033;-67
2022/03/14 00:11:08;;;;;;;2.28;1.23;;;25.70;99.90;;;;;;5020480;28;20030;-65
2022/03/14 00:13:35;;;;;;;4.50;2.30;;;26.00;99.90;;;;;;5024563;28;20025;-65
2022/03/14 00:16:03;;;;;;;2.00;1.00;;;26.30;99.90;;;;;;5026058;28;20013;-68
2022/03/14 00:18:32;;;;;;;3.55;1.30;;;26.60;99.90;;;;;;5003145;28;20029;-64
2022/03/14 00:20:59;;;;;;;1.58;0.60;;;26.80;99.90;;;;;;5021146;28;20523;-67
2022/03/14 00:23:27;;;;;;;1.77;0.70;;;27.30;99.90;;;;;;5025948;28;20105;-65
2022/03/14 00:25:54;;;;;;;4.50;0.93;;;27.20;99.90;;;;;;5023982;28;20031;-65
2022/03/14 00:28:21;;;;;;;2.95;0.70;;;27.10;99.90;;;;;;5027333;28;20187;-65
2022/03/14 00:30:48;;;;;;;3.30;0.63;;;26.80;99.90;;;;;;5019882;28;20025;-66
2022/03/14 00:33:15;;;;;;;2.75;0.70;;;26.30;99.90;;;;;;5022892;28;20040;-65
2022/03/14 00:35:42;;;;;;;2.72;0.60;;;25.90;99.90;;;;;;5025775;28;20021;-65
2022/03/14 00:38:09;;;;;;;1.52;0.95;;;25.80;99.90;;;;;;5025134;28;20052;-67
2022/03/14 00:40:36;;;;;;;1.40;0.60;;;25.90;99.90;;;;;;5023160;28;20030;-72
2022/03/14 00:43:03;;;;;;;3.45;0.77;;;25.80;99.90;;;;;;5025418;28;20021;-68
2022/03/14 00:45:31;;;;;;;2.53;0.88;;;25.90;99.90;;;;;;5019759;28;20152;-65
2022/03/14 00:47:58;;;;;;;5.75;1.10;;;25.90;99.90;;;;;;5024079;28;20109;-69
2022/03/14 00:50:25;;;;;;;4.28;1.00;;;26.50;99.90;;;;;;5025490;28;20025;-66
2022/03/14 00:52:52;;;;;;;1.77;0.68;;;27.10;99.90;;;;;;5002869;28;20057;-70
2022/03/14 00:55:20;;;;;;;2.63;0.70;;;27.50;99.90;;;;;;5020074;28;20014;-67
2022/03/14 00:57:46;;;;;;;1.92;0.60;;;27.90;99.90;;;;;;5023719;28;20021;-66
2022/03/14 01:00:14;;;;;;;1.88;0.65;;;27.90;99.80;;;;;;5024284;28;20061;-69
2022/03/14 01:02:41;;;;;;;1.15;0.50;;;28.00;98.70;;;;;;5026822;28;20029;-67
2022/03/14 01:05:08;;;;;;;2.78;0.90;;;28.40;97.80;;;;;;5020020;28;20021;-65
2022/03/14 01:07:35;;;;;;;4.22;1.65;;;28.60;98.20;;;;;;5022346;28;20026;-66
2022/03/14 01:10:06;;;;;;;2.83;0.80;;;29.00;97.20;;;;;;5022258;28;20441;-65
2022/03/14 01:12:33;;;;;;;1.45;0.75;;;29.00;97.00;;;;;;5018394;28;20026;-67
2022/03/14 01:15:00;;;;;;;1.73;0.70;;;29.50;96.90;;;;;;5004055;28;20025;-66
2022/03/14 01:17:28;;;;;;;2.15;0.90;;;29.70;96.90;;;;;;5021562;28;20026;-65
2022/03/14 01:19:55;;;;;;;2.50;0.80;;;30.10;95.90;;;;;;5019074;28;20458;-63
2022/03/14 01:22:22;;;;;;;1.92;0.50;;;30.50;95.40;;;;;;5021452;28;20357;-64
2022/03/14 01:24:48;;;;;;;2.55;1.05;;;30.50;94.60;;;;;;5023089;28;20057;-64
2022/03/14 01:27:15;;;;;;;4.50;1.02;;;30.20;94.50;;;;;;5020382;28;20443;-65
2022/03/14 01:29:42;;;;;;;1.45;0.80;;;29.50;95.70;;;;;;5022654;28;20495;-64
2022/03/14 01:32:10;;;;;;;2.33;1.17;;;29.00;96.40;;;;;;5027617;28;20121;-64
2022/03/14 01:34:37;;;;;;;2.17;0.90;;;29.20;96.10;;;;;;5024369;28;20037;-65
2022/03/14 01:37:04;;;;;;;4.07;1.48;;;28.80;95.90;;;;;;5019631;28;20570;-65
2022/03/14 01:39:32;;;;;;;1.67;0.90;;;28.30;96.50;;;;;;5031699;28;20025;-64
2022/03/14 01:41:59;;;;;;;4.43;0.80;;;28.60;97.00;;;;;;5031118;28;20018;-63
2022/03/14 01:44:27;;;;;;;1.42;0.60;;;28.60;96.40;;;;;;5024533;28;20068;-64
2022/03/14 01:46:55;;;;;;;3.47;0.90;;;28.40;97.20;;;;;;5018300;28;20021;-64
2022/03/14 01:49:22;;;;;;;5.43;2.42;;;28.30;97.60;;;;;;5027038;28;20029;-64
2022/03/14 01:51:52;;;;;;;1.55;0.90;;;28.00;97.70;;;;;;5024375;28;20028;-64
2022/03/14 01:54:19;;;;;;;1.40;0.85;;;27.90;97.70;;;;;;5021616;28;20075;-64
2022/03/14 01:56:47;;;;;;;2.58;0.88;;;27.60;98.20;;;;;;5023676;28;20116;-64
2022/03/14 01:59:14;;;;;;;4.82;2.67;;;27.50;98.40;;;;;;5022904;28;20025;-64
2022/03/14 02:01:41;;;;;;;2.35;1.38;;;27.40;99.00;;;;;;5018513;28;20381;-66
2022/03/14 02:04:08;;;;;;;5.13;1.65;;;27.50;98.70;;;;;;5021181;28;20037;-65
2022/03/14 02:06:35;;;;;;;2.60;0.80;;;27.50;99.50;;;;;;5024808;28;20105;-66
2022/03/14 02:09:03;;;;;;;2.33;0.90;;;27.40;99.80;;;;;;5025923;28;20036;-65
2022/03/14 02:11:30;;;;;;;3.65;0.70;;;27.50;99.90;;;;;;5023920;28;20108;-65
2022/03/14 02:13:57;;;;;;;3.88;0.95;;;27.40;99.90;;;;;;5025682;28;20020;-65
2022/03/14 02:16:25;;;;;;;4.32;1.10;;;27.50;99.90;;;;;;5026344;28;20021;-66
2022/03/14 02:18:52;;;;;;;2.60;0.70;;;27.40;99.90;;;;;;5019732;28;20103;-66
2022/03/14 02:21:19;;;;;;;2.75;1.02;;;27.40;99.90;;;;;;5021013;28;20484;-64
2022/03/14 02:23:46;;;;;;;4.15;1.02;;;27.70;99.90;;;;;;5023783;28;20080;-65
2022/03/14 02:26:13;;;;;;;4.78;1.00;;;27.50;99.90;;;;;;5020479;28;20081;-66
2022/03/14 02:28:39;;;;;;;3.30;0.90;;;27.00;99.90;;;;;;5016228;28;20076;-64
2022/03/14 02:31:06;;;;;;;3.05;1.02;;;26.50;99.90;;;;;;5004012;28;20063;-65
2022/03/14 02:33:34;;;;;;;2.08;0.90;;;26.00;99.90;;;;;;5018096;28;20021;-65
2022/03/14 02:36:00;;;;;;;1.75;0.90;;;25.80;99.90;;;;;;5021025;28;20021;-64
2022/03/14 02:38:27;;;;;;;2.38;0.90;;;25.50;99.90;;;;;;5015064;28;20489;-65
2022/03/14 02:40:54;;;;;;;2.42;0.95;;;25.30;99.90;;;;;;5018070;28;20022;-66
2022/03/14 02:43:24;;;;;;;2.60;1.13;;;25.10;99.90;;;;;;5022171;28;20029;-63
2022/03/14 02:45:52;;;;;;;4.50;0.70;;;25.00;99.90;;;;;;5020873;28;20026;-64
2022/03/14 02:48:22;;;;;;;2.50;1.13;;;24.90;99.90;;;;;;5020760;28;20539;-64
2022/03/14 02:50:53;;;;;;;2.00;0.88;;;24.80;99.90;;;;;;5022781;28;20028;-64
2022/03/14 02:53:21;;;;;;;3.33;1.77;;;24.70;99.90;;;;;;5015066;28;20484;-65
2022/03/14 02:55:48;;;;;;;8.75;5.28;;;24.60;99.90;;;;;;5018727;28;20543;-65
2022/03/14 02:58:15;;;;;;;1.70;0.90;;;24.60;99.90;;;;;;5020612;28;20068;-65
2022/03/14 03:00:42;;;;;;;1.88;1.15;;;24.80;99.90;;;;;;5017990;28;20477;-66
2022/03/14 03:03:11;;;;;;;3.25;0.80;;;25.00;99.90;;;;;;5013017;28;20456;-64
2022/03/14 03:05:43;;;;;;;2.53;0.70;;;24.90;99.90;;;;;;5017952;28;20029;-65
2022/03/14 03:08:11;;;;;;;4.57;1.10;;;25.00;99.90;;;;;;4321637;28;10000410;-63
2022/03/14 03:10:39;;;;;;;3.95;0.70;;;25.00;99.90;;;;;;5021717;28;20033;-64
2022/03/14 03:13:06;;;;;;;2.20;0.80;;;24.80;99.90;;;;;;5016887;28;20021;-63
2022/03/14 03:15:37;;;;;;;3.63;1.25;;;24.90;99.90;;;;;;5020268;28;20017;-63
2022/03/14 03:18:06;;;;;;;3.22;1.10;;;24.80;99.90;;;;;;5014814;28;20112;-67
2022/03/14 03:20:33;;;;;;;1.55;0.88;;;24.90;99.90;;;;;;5019886;28;20022;-66
2022/03/14 03:23:00;;;;;;;12.43;10.98;;;25.00;99.90;;;;;;5015123;28;20018;-64
2022/03/14 03:25:27;;;;;;;3.95;1.02;;;25.00;99.90;;;;;;5023487;28;20033;-64
2022/03/14 03:27:54;;;;;;;3.05;0.80;;;25.40;99.90;;;;;;5019860;28;20029;-65
2022/03/14 03:30:21;;;;;;;2.60;0.98;;;25.50;99.90;;;;;;5020341;28;20029;-65
2022/03/14 03:32:48;;;;;;;2.95;1.50;;;25.80;99.90;;;;;;5015781;28;20057;-66
2022/03/14 03:35:15;;;;;;;2.95;0.90;;;25.30;99.90;;;;;;4994159;28;20033;-64
2022/03/14 03:37:42;;;;;;;2.47;0.68;;;24.40;99.90;;;;;;5022548;28;20147;-66
2022/03/14 03:40:09;;;;;;;1.60;0.93;;;24.10;99.90;;;;;;5008071;28;20034;-64
2022/03/14 03:42:36;;;;;;;3.10;0.98;;;23.70;99.90;;;;;;5017771;28;20022;-66
2022/03/14 03:45:03;;;;;;;2.35;0.80;;;23.20;99.90;;;;;;5023942;28;20551;-68
2022/03/14 03:47:30;;;;;;;2.80;0.90;;;22.70;99.90;;;;;;5018380;28;20084;-65
2022/03/14 03:49:57;;;;;;;1.33;0.70;;;22.50;99.90;;;;;;5015048;28;20049;-67
2022/03/14 03:52:24;;;;;;;2.28;0.60;;;22.50;99.90;;;;;;5020055;28;20026;-65
2022/03/14 03:54:51;;;;;;;5.22;0.90;;;22.60;99.90;;;;;;5019173;28;20450;-65
2022/03/14 03:57:18;;;;;;;2.45;0.93;;;22.60;99.90;;;;;;5021691;28;20125;-67
2022/03/14 03:59:45;;;;;;;0.80;0.50;;;22.70;99.90;;;;;;5024038;28;20109;-65
2022/03/14 04:02:12;;;;;;;0.90;0.50;;;22.80;99.90;;;;;;5016541;28;20018;-64
2022/03/14 04:04:39;;;;;;;0.55;0.50;;;22.70;99.90;;;;;;5013701;28;20102;-68
2022/03/14 04:07:08;;;;;;;1.00;0.68;;;23.10;99.90;;;;;;5005383;28;20029;-64
2022/03/14 04:09:36;;;;;;;1.13;0.65;;;23.50;99.90;;;;;;5026797;28;20075;-66
2022/03/14 04:12:03;;;;;;;2.38;0.60;;;23.40;99.90;;;;;;5020280;28;20381;-64
2022/03/14 04:14:30;;;;;;;2.95;0.95;;;23.30;99.90;;;;;;4995792;28;20376;-67
2022/03/14 04:17:04;;;;;;;2.78;0.88;;;23.50;99.90;;;;;;5015891;28;20037;-65
2022/03/14 04:19:32;;;;;;;1.38;0.65;;;23.70;99.90;;;;;;5019415;28;20042;-64
2022/03/14 04:21:59;;;;;;;3.05;0.73;;;23.80;99.90;;;;;;5010273;28;20543;-64
2022/03/14 04:24:26;;;;;;;1.58;0.85;;;23.80;99.90;;;;;;5018565;28;20028;-64
2022/03/14 04:26:53;;;;;;;2.38;0.75;;;23.90;99.90;;;;;;5009470;28;20021;-65
2022/03/14 04:29:20;;;;;;;2.78;0.80;;;23.80;99.90;;;;;;5021899;28;20040;-67
2022/03/14 04:31:47;;;;;;;1.63;0.63;;;23.70;99.90;;;;;;5013957;28;20052;-66
2022/03/14 04:34:14;;;;;;;3.92;1.02;;;23.70;99.90;;;;;;5016595;28;20273;-66
2022/03/14 04:36:41;;;;;;;3.03;0.82;;;23.60;99.90;;;;;;5006691;28;20046;-67
2022/03/14 04:39:08;;;;;;;2.90;1.05;;;23.70;99.90;;;;;;5013338;28;20389;-67
2022/03/14 04:41:37;;;;;;;4.25;1.65;;;23.80;99.90;;;;;;5012943;28;20064;-66
2022/03/14 04:44:05;;;;;;;4.20;0.80;;;23.70;99.90;;;;;;4997381;28;20076;-65
2022/03/14 04:46:32;;;;;;;2.70;1.38;;;23.70;99.90;;;;;;5015796;28;20032;-66
2022/03/14 04:48:59;;;;;;;6.82;1.38;;;23.70;99.90;;;;;;5016758;28;20056;-65
2022/03/14 04:51:27;;;;;;;2.53;1.10;;;23.80;99.90;;;;;;5012588;28;20034;-66
2022/03/14 04:53:54;;;;;;;4.45;1.35;;;23.90;99.90;;;;;;5010987;28;20057;-68
2022/03/14 04:56:21;;;;;;;3.83;1.38;;;24.00;99.90;;;;;;5011154;28;20034;-67
2022/03/14 04:58:48;;;;;;;6.43;1.58;;;24.10;99.90;;;;;;5014374;28;20388;-65
2022/03/14 05:01:15;;;;;;;6.55;1.75;;;23.90;99.90;;;;;;5011941;28;20030;-66
2022/03/14 05:03:43;;;;;;;2.45;1.00;;;23.80;99.90;;;;;;5012040;28;20037;-67
2022/03/14 05:06:10;;;;;;;5.88;1.08;;;23.70;99.90;;;;;;5010403;28;20604;-67
2022/03/14 05:08:37;;;;;;;3.55;1.15;;;23.70;99.90;;;;;;5014935;28;20029;-66
2022/03/14 05:11:04;;;;;;;4.63;1.20;;;23.70;99.90;;;;;;5013619;28;20110;-66
2022/03/14 05:13:31;;;;;;;6.10;1.52;;;23.80;99.90;;;;;;5010998;28;20038;-67
2022/03/14 05:15:58;;;;;;;4.25;1.33;;;23.80;99.90;;;;;;5015753;28;20055;-68
2022/03/14 05:18:25;;;;;;;5.05;1.45;;;23.70;99.90;;;;;;5022909;28;20072;-64
2022/03/14 05:20:52;;;;;;;6.82;1.80;;;23.70;99.90;;;;;;5017795;28;20486;-65
2022/03/14 05:23:19;;;;;;;4.03;1.23;;;23.80;99.90;;;;;;5014175;28;20033;-66
2022/03/14 05:25:46;;;;;;;6.05;1.40;;;23.70;99.90;;;;;;5011346;28;20101;-67
2022/03/14 05:28:13;;;;;;;5.82;1.30;;;23.70;99.90;;;;;;5016260;28;20591;-67
2022/03/14 05:30:40;;;;;;;4.15;1.67;;;23.60;99.90;;;;;;5004030;28;20546;-65
2022/03/14 05:33:07;;;;;;;3.85;2.10;;;23.50;99.90;;;;;;5023923;28;20033;-64
2022/03/14 05:35:34;;;;;;;5.40;2.00;;;23.50;99.90;;;;;;5022927;28;20033;-66
2022/03/14 05:38:01;;;;;;;4.32;1.55;;;23.50;99.90;;;;;;5019269;28;20391;-65
2022/03/14 05:40:28;;;;;;;5.78;1.50;;;23.40;99.90;;;;;;5022512;28;20030;-66
2022/03/14 05:42:55;;;;;;;4.20;1.30;;;23.30;99.90;;;;;;5013050;28;20034;-64
2022/03/14 05:45:23;;;;;;;5.85;2.08;;;23.30;99.90;;;;;;5011636;28;20495;-67
2022/03/14 05:47:51;;;;;;;4.68;1.35;;;23.20;99.90;;;;;;5019136;28;20030;-66
2022/03/14 05:50:19;;;;;;;5.47;1.75;;;23.30;99.90;;;;;;5015334;28;20029;-64
2022/03/14 05:52:46;;;;;;;9.40;3.20;;;23.20;99.90;;;;;;5016515;28;20028;-64
2022/03/14 05:55:13;;;;;;;5.85;2.28;;;23.10;99.90;;;;;;5017210;28;20033;-64
2022/03/14 05:57:40;;;;;;;5.85;1.83;;;23.10;99.90;;;;;;5030022;28;20057;-64
2022/03/14 06:00:09;;;;;;;5.93;1.50;;;23.10;99.90;;;;;;5019201;28;20036;-67
2022/03/14 06:02:36;;;;;;;5.35;1.42;;;23.10;99.90;;;;;;5021411;28;20021;-68
2022/03/14 06:05:04;;;;;;;5.35;1.38;;;23.10;99.90;;;;;;5020624;28;20021;-69
2022/03/14 06:07:31;;;;;;;6.07;2.03;;;23.00;99.90;;;;;;4992983;28;20025;-67
2022/03/14 06:09:58;;;;;;;5.70;1.77;;;23.00;99.90;;;;;;4988612;28;20060;-66
2022/03/14 06:12:27;;;;;;;8.00;1.77;;;23.00;99.90;;;;;;5014810;28;20025;-67
2022/03/14 06:14:55;;;;;;;8.10;2.35;;;23.00;99.90;;;;;;5010345;28;20813;-64
2022/03/14 06:17:22;;;;;;;5.30;1.73;;;22.90;99.90;;;;;;5008810;28;20484;-67
2022/03/14 06:19:50;;;;;;;5.75;1.52;;;23.00;99.90;;;;;;5012824;28;20085;-66
2022/03/14 06:22:19;;;;;;;3.80;1.23;;;23.00;99.90;;;;;;5011349;28;20021;-67
2022/03/14 06:24:48;;;;;;;5.60;1.33;;;23.10;99.90;;;;;;5016557;28;20112;-69
2022/03/14 06:27:20;;;;;;;6.30;1.48;;;23.00;99.90;;;;;;5014332;28;20061;-71
2022/03/14 06:29:48;;;;;;;5.03;1.48;;;23.00;99.90;;;;;;5018181;28;20038;-69
2022/03/14 06:32:15;;;;;;;3.80;1.20;;;23.10;99.90;;;;;;5015633;28;20399;-67
2022/03/14 06:34:43;;;;;;;6.22;1.23;;;23.10;99.90;;;;;;5017011;28;20040;-71
2022/03/14 06:37:10;;;;;;;3.90;1.30;;;23.10;99.90;;;;;;5015779;28;20068;-65
2022/03/14 06:39:38;;;;;;;4.47;1.25;;;23.10;99.90;;;;;;5017696;28;20440;-65
2022/03/14 06:42:08;;;;;;;3.10;1.35;;;23.00;99.90;;;;;;5016741;28;20025;-65
2022/03/14 06:44:39;;;;;;;4.13;1.48;;;23.10;99.90;;;;;;5016576;28;20025;-68
2022/03/14 06:47:11;;;;;;;6.03;1.58;;;23.20;99.90;;;;;;5016819;28;20033;-68
2022/03/14 06:49:44;;;;;;;5.13;1.20;;;23.20;99.90;;;;;;5020121;28;20029;-63
2022/03/14 06:52:12;;;;;;;3.05;1.05;;;23.20;99.90;;;;;;5017616;28;20531;-67
2022/03/14 06:54:39;;;;;;;6.72;1.55;;;23.20;99.90;;;;;;5020184;28;20527;-66
2022/03/14 06:57:07;;;;;;;3.83;1.48;;;23.20;99.90;;;;;;5019122;28;20029;-64
2022/03/14 06:59:34;;;;;;;5.80;0.93;;;23.10;99.90;;;;;;5017780;28;20080;-65
2022/03/14 07:02:03;;;;;;;3.70;1.38;;;23.10;99.90;;;;;;5016783;28;20330;-65
2022/03/14 07:04:30;;;;;;;5.10;1.00;;;23.10;99.90;;;;;;5017801;28;20025;-68
2022/03/14 07:06:59;;;;;;;7.63;1.27;;;23.10;99.90;;;;;;5016633;28;20025;-67
2022/03/14 07:09:26;;;;;;;4.45;1.25;;;23.00;99.90;;;;;;5015268;28;20112;-72
2022/03/14 07:11:53;;;;;;;10.13;1.30;;;22.90;99.90;;;;;;4997485;28;20472;-69
2022/03/14 07:14:23;;;;;;;5.85;1.08;;;23.00;99.90;;;;;;5016857;28;20032;-67
2022/03/14 07:16:50;;;;;;;3.08;0.80;;;23.00;99.90;;;;;;5017553;28;20065;-66
2022/03/14 07:19:18;;;;;;;3.92;1.42;;;22.90;99.90;;;;;;5015118;28;20713;-67
2022/03/14 07:21:45;;;;;;;4.43;1.40;;;22.90;99.90;;;;;;5013265;28;20029;-66
2022/03/14 07:24:12;;;;;;;4.00;1.50;;;22.80;99.90;;;;;;4998549;28;20056;-63
2022/03/14 07:26:39;;;;;;;7.05;1.92;;;22.80;99.90;;;;;;5015395;28;20076;-66
2022/03/14 07:29:06;;;;;;;4.22;1.40;;;22.80;99.90;;;;;;5020368;28;20021;-64
2022/03/14 07:31:35;;;;;;;3.15;0.82;;;22.90;99.90;;;;;;5021418;28;20031;-67
2022/03/14 07:34:02;;;;;;;4.13;1.00;;;22.80;99.90;;;;;;5020215;28;20092;-64
2022/03/14 07:36:29;;;;;;;3.83;1.40;;;22.80;99.90;;;;;;5020729;28;20053;-63
2022/03/14 07:38:56;;;;;;;7.13;1.52;;;22.70;99.90;;;;;;5020188;28;20022;-67
2022/03/14 07:41:26;;;;;;;8.00;2.47;;;22.70;99.90;;;;;;5021260;28;20052;-64
2022/03/14 07:43:53;;;;;;;3.35;1.30;;;22.80;99.90;;;;;;5020123;28;20034;-66
2022/03/14 07:46:20;;;;;;;4.50;1.02;;;22.80;99.90;;;;;;5020799;28;20101;-64
2022/03/14 07:48:47;;;;;;;5.70;1.05;;;22.70;99.90;;;;;;5023307;28;20072;-68
2022/03/14 07:51:15;;;;;;;3.38;1.10;;;22.70;99.90;;;;;;5019886;28;20083;-66
2022/03/14 07:53:42;;;;;;;4.25;1.25;;;22.60;99.90;;;;;;5000733;28;20034;-67
2022/03/14 07:56:11;;;;;;;4.20;1.15;;;22.60;99.90;;;;;;5022041;28;20719;-67
2022/03/14 07:58:38;;;;;;;3.03;1.33;;;22.50;99.90;;;;;;5023042;28;20423;-63
2022/03/14 08:01:05;;;;;;;4.00;1.10;;;22.40;99.90;;;;;;5024327;28;20126;-65
2022/03/14 08:03:32;;;;;;;5.05;1.50;;;22.30;99.90;;;;;;5026085;28;20025;-67
2022/03/14 08:06:00;;;;;;;3.72;1.23;;;22.20;99.90;;;;;;5027324;28;20514;-69
2022/03/14 08:08:30;;;;;;;12.73;10.55;;;22.10;99.90;;;;;;5027482;28;20041;-69
2022/03/14 08:11:01;;;;;;;4.82;1.20;;;22.10;99.90;;;;;;5028915;28;20049;-67
2022/03/14 08:13:28;;;;;;;5.50;1.55;;;22.10;99.90;;;;;;5025566;28;20021;-67
2022/03/14 08:15:55;;;;;;;4.43;1.83;;;22.00;99.90;;;;;;5028211;28;20045;-67
2022/03/14 08:18:22;;;;;;;4.03;1.45;;;22.10;99.90;;;;;;5004807;28;20080;-67
2022/03/14 08:20:55;;;;;;;4.85;1.92;;;22.10;99.90;;;;;;5024155;28;20021;-68
2022/03/14 08:23:22;;;;;;;5.75;1.60;;;21.90;99.90;;;;;;5009181;28;20030;-67
2022/03/14 08:25:49;;;;;;;4.70;1.35;;;21.80;99.90;;;;;;5022123;28;20360;-67
2022/03/14 08:28:16;;;;;;;5.63;2.20;;;21.70;99.90;;;;;;5026709;28;20104;-67
2022/03/14 08:30:45;;;;;;;4.10;1.63;;;21.60;99.90;;;;;;5027935;28;20444;-65
2022/03/14 08:33:12;;;;;;;4.13;1.40;;;21.50;99.90;;;;;;5023759;28;20470;-65
2022/03/14 08:35:39;;;;;;;4.50;1.80;;;21.40;99.90;;;;;;5024640;28;20045;-67
2022/03/14 08:38:07;;;;;;;4.85;1.63;;;21.30;99.90;;;;;;5023553;28;20041;-64
2022/03/14 08:40:34;;;;;;;4.20;1.17;;;21.20;99.90;;;;;;5003688;28;20615;-68
2022/03/14 08:43:01;;;;;;;6.43;1.45;;;21.10;99.90;;;;;;5023750;28;20059;-66
2022/03/14 08:45:28;;;;;;;10.05;1.58;;;21.10;99.90;;;;;;5023118;28;20028;-68
2022/03/14 08:47:55;;;;;;;4.80;1.75;;;21.10;99.90;;;;;;5024646;28;20029;-69
2022/03/14 08:50:23;;;;;;;6.95;2.33;;;21.00;99.90;;;;;;5024242;28;20036;-65
2022/03/14 08:52:52;;;;;;;4.28;1.63;;;20.80;99.90;;;;;;5028109;28;20095;-68
2022/03/14 08:55:19;;;;;;;3.40;1.60;;;20.60;99.90;;;;;;5022936;28;20315;-67
2022/03/14 08:57:46;;;;;;;3.72;2.47;;;20.70;99.90;;;;;;5023421;28;20025;-68
2022/03/14 09:00:13;;;;;;;7.35;1.58;;;20.60;99.90;;;;;;5023737;28;20034;-68
2022/03/14 09:02:41;;;;;;;4.75;2.10;;;20.50;99.90;;;;;;5024693;28;20024;-66
2022/03/14 09:05:09;;;;;;;3.75;1.83;;;20.50;99.90;;;;;;5021043;28;20427;-69
2022/03/14 09:07:36;;;;;;;7.03;2.10;;;20.50;99.90;;;;;;5023476;28;20022;-68
2022/03/14 09:10:09;;;;;;;3.55;1.30;;;20.50;99.90;;;;;;5026033;28;20119;-69
2022/03/14 09:12:38;;;;;;;2.88;1.20;;;20.50;99.90;;;;;;5025883;28;20025;-64
2022/03/14 09:15:07;;;;;;;3.08;1.45;;;20.40;99.90;;;;;;5019520;28;20101;-67
2022/03/14 09:17:35;;;;;;;5.18;1.52;;;20.50;99.90;;;;;;5022393;28;20509;-68
2022/03/14 09:20:03;;;;;;;4.47;1.65;;;20.40;99.90;;;;;;5022781;28;20087;-63
2022/03/14 09:22:30;;;;;;;6.95;1.40;;;20.30;99.90;;;;;;5023533;28;20053;-68
2022/03/14 09:24:58;;;;;;;3.72;1.50;;;20.20;99.90;;;;;;5023477;28;20255;-64
2022/03/14 09:27:25;;;;;;;6.57;1.75;;;20.10;99.90;;;;;;5021837;28;20184;-65
2022/03/14 09:29:52;;;;;;;4.63;1.77;;;20.00;99.90;;;;;;5003762;28;20500;-67
2022/03/14 09:32:20;;;;;;;4.60;1.27;;;19.90;99.90;;;;;;5024246;28;20504;-68
2022/03/14 09:34:48;;;;;;;6.38;1.35;;;19.80;99.90;;;;;;5022863;28;20079;-68
2022/03/14 09:37:17;;;;;;;3.55;1.40;;;19.70;99.90;;;;;;5001196;28;20088;-65
2022/03/14 09:39:44;;;;;;;7.63;1.40;;;19.60;99.90;;;;;;5020699;28;20217;-69
2022/03/14 09:42:12;;;;;;;5.25;1.77;;;19.50;99.90;;;;;;5019299;28;20029;-69
2022/03/14 09:44:42;;;;;;;6.07;2.17;;;19.50;99.90;;;;;;5021524;28;20060;-67
2022/03/14 09:47:11;;;;;;;4.68;1.88;;;19.50;99.90;;;;;;5018087;28;20108;-63
2022/03/14 09:49:40;;;;;;;7.15;1.65;;;19.50;99.90;;;;;;5019286;28;20121;-63
2022/03/14 09:52:08;;;;;;;5.65;1.73;;;19.50;99.90;;;;;;5019489;28;20511;-62
2022/03/14 09:54:36;;;;;;;5.07;1.55;;;19.60;99.90;;;;;;5015630;28;20048;-69
2022/03/14 09:57:03;;;;;;;3.63;1.25;;;19.50;99.90;;;;;;5017780;28;20816;-67
2022/03/14 09:59:32;;;;;;;5.60;1.80;;;19.40;99.90;;;;;;5017060;28;20094;-67
2022/03/14 10:01:59;;;;;;;4.43;1.10;;;19.30;99.90;;;;;;4999720;28;20017;-70
2022/03/14 10:04:26;;;;;;;6.85;1.40;;;19.30;99.90;;;;;;5019742;28;20030;-66
2022/03/14 10:06:53;;;;;;;4.50;1.30;;;19.20;99.90;;;;;;5024880;28;20030;-66
2022/03/14 10:09:20;;;;;;;4.35;1.33;;;19.20;99.90;;;;;;5021510;28;20447;-64
2022/03/14 10:11:47;;;;;;;4.53;1.80;;;19.10;99.90;;;;;;5029782;28;20448;-68
2022/03/14 10:14:19;;;;;;;9.18;2.03;;;19.10;99.90;;;;;;4995226;28;20041;-66
2022/03/14 10:16:47;;;;;;;7.32;2.03;;;19.10;99.90;;;;;;4993343;28;20030;-64
2022/03/14 10:19:25;;;;;;;3.58;1.50;;;19.00;99.90;;;;;;5020126;28;20033;-69
2022/03/14 10:21:52;;;;;;;3.45;1.30;;;19.00;99.90;;;;;;5016081;28;20025;-67
2022/03/14 10:24:23;;;;;;;4.95;1.70;;;18.90;99.90;;;;;;5021337;28;20099;-72
2022/03/14 10:26:50;;;;;;;5.32;1.65;;;18.90;99.90;;;;;;5017555;28;20025;-67
2022/03/14 10:29:18;;;;;;;5.97;1.23;;;18.90;99.90;;;;;;5008915;28;20041;-66
2022/03/14 10:32:01;;;;;;;5.60;1.50;;;18.80;99.90;;;;;;5020151;28;20140;-64
2022/03/14 10:34:28;;;;;;;6.53;1.98;;;18.70;99.90;;;;;;5018993;28;20079;-68
2022/03/14 10:36:57;;;;;;;5.95;1.58;;;18.70;99.90;;;;;;5039348;23;20481;-64
2022/03/14 10:39:30;;;;;;;7.88;2.22;;;18.70;99.90;;;;;;5040881;28;20048;-72
2022/03/14 10:42:07;;;;;;;5.47;1.55;;;18.70;99.90;;;;;;5036059;28;20025;-63
2022/03/14 10:44:36;;;;;;;8.05;2.25;;;18.70;99.90;;;;;;5038343;28;20107;-64
2022/03/14 10:47:05;;;;;;;6.35;2.08;;;18.60;99.90;;;;;;5039271;28;20575;-65
2022/03/14 10:49:36;;;;;;;5.72;1.70;;;18.50;99.90;;;;;;5038211;28;20033;-62
2022/03/14 10:52:10;;;;;;;4.88;1.70;;;18.50;99.90;;;;;;5037363;28;20025;-67
2022/03/14 10:54:40;;;;;;;10.90;6.85;;;18.50;99.90;;;;;;5039468;28;20033;-67
2022/03/14 10:57:10;;;;;;;6.47;2.00;;;18.60;99.90;;;;;;5036991;28;20032;-67
2022/03/14 10:59:43;;;;;;;8.45;2.38;;;18.70;99.90;;;;;;5020060;28;20040;-65
2022/03/14 11:02:17;;;;;;;5.78;2.17;;;18.70;99.90;;;;;;5039050;28;20138;-66
2022/03/14 11:04:45;;;;;;;8.20;2.67;;;18.80;99.90;;;;;;5039061;28;20017;-63
2022/03/14 11:07:13;;;;;;;7.38;3.42;;;18.70;99.90;;;;;;5039681;28;20065;-64
2022/03/14 11:09:51;;;;;;;10.00;3.15;;;18.70;99.90;;;;;;5033356;28;20479;-69
2022/03/14 11:12:20;;;;;;;8.15;2.03;;;18.80;99.90;;;;;;5039843;28;20053;-65
2022/03/14 11:15:20;;;;;;;5.90;1.50;;;18.80;99.90;;;;;;5039796;28;20032;-70
2022/03/14 11:17:49;;;;;;;3.90;1.30;;;18.70;99.90;;;;;;4941777;28;20043;-64
2022/03/14 11:20:16;;;;;;;4.78;1.52;;;18.70;99.90;;;;;;4944648;28;20375;-68
2022/03/14 11:22:43;;;;;;;5.75;1.88;;;18.60;99.90;;;;;;4942744;28;20031;-67
2022/03/14 11:25:11;;;;;;;4.60;1.75;;;18.70;99.90;;;;;;4944840;28;20418;-71
2022/03/14 11:27:41;;;;;;;9.50;3.30;;;18.70;99.90;;;;;;4943129;28;20659;-73
2022/03/14 11:30:11;;;;;;;8.32;2.65;;;18.70;99.90;;;;;;4941834;28;20141;-63
2022/03/14 11:32:38;;;;;;;6.00;3.03;;;18.70;99.90;;;;;;4946679;28;20064;-69
2022/03/14 11:35:07;;;;;;;7.82;3.13;;;18.60;99.90;;;;;;4947620;28;20074;-64
2022/03/14 11:37:34;;;;;;;11.93;3.65;;;18.60;99.90;;;;;;4947253;28;20545;-69
2022/03/14 11:40:04;;;;;;;8.45;4.10;;;18.50;99.90;;;;;;4947137;28;20149;-67
2022/03/14 11:42:31;;;;;;;9.85;4.10;;;18.60;99.90;;;;;;4946072;28;20039;-70
2022/03/14 11:45:05;;;;;;;9.27;3.80;;;18.60;99.90;;;;;;4952954;28;20415;-67
2022/03/14 11:47:33;;;;;;;10.77;3.85;;;18.60;99.90;;;;;;4945051;28;20122;-64
2022/03/14 11:50:01;;;;;;;12.15;3.90;;;18.60;99.90;;;;;;4946351;28;20031;-68
2022/03/14 11:52:38;;;;;;;5.35;3.08;;;18.60;99.90;;;;;;4954836;28;20046;-62
2022/03/14 11:55:17;;;;;;;6.53;3.20;;;18.60;99.90;;;;;;5018667;28;20075;-66
2022/03/14 11:57:44;;;;;;;9.90;2.75;;;18.50;99.90;;;;;;5022438;28;20420;-65
2022/03/14 12:00:38;;;;;;;8.18;3.08;;;18.50;99.90;;;;;;5020447;28;20052;-72
2022/03/14 12:03:08;;;;;;;8.65;2.65;;;18.40;99.90;;;;;;5023014;28;20038;-73
2022/03/14 12:05:38;;;;;;;6.88;2.92;;;18.30;99.90;;;;;;5022697;28;20531;-72
2022/03/14 12:08:30;;;;;;;7.55;2.95;;;18.20;99.90;;;;;;5012606;28;20448;-69
2022/03/14 12:11:18;;;;;;;8.10;2.97;;;18.20;99.90;;;;;;5015741;28;20136;-64
2022/03/14 12:13:48;;;;;;;7.78;3.22;;;18.20;99.90;;;;;;4955405;28;20050;-72
2022/03/14 12:16:39;;;;;;;9.13;3.75;;;18.10;99.90;;;;;;4953633;28;20175;-63
2022/03/14 12:19:38;;;;;;;9.32;3.10;;;18.10;99.90;;;;;;4940411;28;20045;-73
2022/03/14 12:22:07;;;;;;;8.63;3.13;;;18.10;99.90;;;;;;4617333;28;10001056;-70
2022/03/14 12:24:36;;;;;;;8.30;3.63;;;18.10;99.90;;;;;;4955208;28;20054;-70
2022/03/14 12:27:19;;;;;;;8.80;3.45;;;18.00;99.90;;;;;;4943140;28;20022;-63
2022/03/14 12:29:49;;;;;;;8.38;3.10;;;18.00;99.90;;;;;;4963402;28;20030;-70
2022/03/14 12:32:26;;;;;;;11.48;3.58;;;18.00;99.90;;;;;;4961369;28;20125;-71
2022/03/14 12:35:07;;;;;;;7.85;3.08;;;18.10;99.90;;;;;;4968066;28;20038;-65
2022/03/14 12:37:43;;;;;;;8.77;3.33;;;18.10;99.90;;;;;;4966286;28;20046;-71
2022/03/14 12:40:32;;;;;;;12.38;3.55;;;18.20;99.90;;;;;;4954456;28;20039;-63
2022/03/14 12:43:07;;;;;;;10.02;2.60;;;18.30;99.90;;;;;;4960955;28;20030;-66
2022/03/14 12:45:48;;;;;;;7.18;3.00;;;18.40;99.90;;;;;;4967067;28;20045;-63
2022/03/14 12:48:21;;;;;;;5.18;2.40;;;18.50;99.90;;;;;;4951658;28;20043;-65
2022/03/14 12:50:51;;;;;;;7.20;2.60;;;18.50;99.90;;;;;;4993849;28;20060;-66
2022/03/14 12:53:19;;;;;;;10.15;2.85;;;18.60;99.90;;;;;;5029230;28;20037;-65